createdAt,value
2023-03-03T00:00:27.989Z,29.60
2023-03-03T00:03:07.180Z,32.60
2023-03-03T00:05:40.652Z,26.27
2023-03-03T00:08:13.642Z,29.52
2023-03-03T00:10:47.093Z,31.40
2023-03-03T00:13:22.846Z,29.23
2023-03-03T00:16:06.973Z,29.35
2023-03-03T00:18:43.732Z,30.92
2023-03-03T00:21:26.591Z,29.50
2023-03-03T00:24:16.292Z,37.25
2023-03-03T00:26:50.482Z,30.67
2023-03-03T00:29:36.479Z,31.25
2023-03-03T00:32:26.113Z,33.72
2023-03-03T00:35:18.625Z,30.00
2023-03-03T00:37:56.199Z,32.53
2023-03-03T00:40:34.360Z,37.22
2023-03-03T00:43:19.378Z,30.52
2023-03-03T00:45:53.760Z,30.30
2023-03-03T00:48:29.836Z,28.70
2023-03-03T00:51:21.035Z,32.03
2023-03-03T00:53:53.824Z,29.27
2023-03-03T00:56:27.380Z,23.55
2023-03-03T00:59:00.325Z,25.38
2023-03-03T01:01:35.296Z,32.13
2023-03-03T01:04:08.406Z,32.83
2023-03-03T01:06:42.813Z,29.55
2023-03-03T01:09:15.557Z,28.73
2023-03-03T01:11:48.778Z,29.30
2023-03-03T01:14:22.300Z,28.10
2023-03-03T01:16:55.463Z,27.52
2023-03-03T01:19:28.633Z,33.22
2023-03-03T01:22:02.936Z,29.83
2023-03-03T01:24:35.928Z,28.23
2023-03-03T01:27:08.818Z,29.92
2023-03-03T01:29:41.782Z,29.38
2023-03-03T01:32:14.740Z,28.40
2023-03-03T01:34:48.543Z,32.63
2023-03-03T01:37:22.820Z,29.13
2023-03-03T01:39:56.462Z,25.73
2023-03-03T01:42:30.074Z,29.35
2023-03-03T01:45:15.480Z,26.33
2023-03-03T01:47:52.889Z,29.48
2023-03-03T01:50:37.040Z,27.15
2023-03-03T01:53:17.022Z,26.80
2023-03-03T01:55:52.977Z,31.98
2023-03-03T01:58:29.401Z,28.73
2023-03-03T02:01:06.989Z,25.92
2023-03-03T02:03:40.702Z,25.80
2023-03-03T02:06:17.137Z,26.25
2023-03-03T02:08:58.355Z,28.70
2023-03-03T02:11:35.879Z,33.50
2023-03-03T02:14:08.849Z,30.05
2023-03-03T02:16:42.484Z,29.27
2023-03-03T02:19:25.436Z,27.25
2023-03-03T02:21:59.259Z,32.42
2023-03-03T02:24:40.829Z,32.30
2023-03-03T02:27:15.296Z,34.20
2023-03-03T02:29:49.813Z,31.05
2023-03-03T02:32:22.859Z,28.77
2023-03-03T02:34:55.794Z,30.33
2023-03-03T02:37:30.365Z,33.55
2023-03-03T02:40:04.641Z,32.03
2023-03-03T02:42:38.907Z,29.00
2023-03-03T02:45:11.814Z,36.30
2023-03-03T02:47:50.426Z,32.70
2023-03-03T02:50:24.518Z,35.28
2023-03-03T02:52:58.068Z,31.33
2023-03-03T02:55:31.024Z,30.38
2023-03-03T02:58:05.253Z,25.23
2023-03-03T03:00:38.125Z,33.90
2023-03-03T03:03:11.139Z,33.50
2023-03-03T03:05:45.255Z,28.05
2023-03-03T03:08:18.366Z,31.98
2023-03-03T03:10:51.860Z,31.45
2023-03-03T03:13:26.917Z,31.90
2023-03-03T03:16:00.572Z,27.90
2023-03-03T03:18:33.369Z,29.15
2023-03-03T03:21:08.993Z,28.58
2023-03-03T03:23:42.600Z,29.65
2023-03-03T03:26:17.899Z,31.02
2023-03-03T03:28:52.895Z,34.03
2023-03-03T03:31:25.914Z,30.40
2023-03-03T03:34:00.632Z,33.88
2023-03-03T03:36:35.134Z,24.13
2023-03-03T03:39:08.108Z,29.70
2023-03-03T03:41:43.892Z,28.70
2023-03-03T03:44:18.200Z,32.83
2023-03-03T03:46:51.325Z,29.70
2023-03-03T03:49:25.023Z,29.00
2023-03-03T03:51:59.798Z,33.28
2023-03-03T03:54:36.220Z,35.55
2023-03-03T03:57:09.229Z,28.75
2023-03-03T03:59:43.807Z,30.75
2023-03-03T04:02:17.711Z,32.40
2023-03-03T04:04:51.606Z,33.38
2023-03-03T04:07:24.799Z,37.83
2023-03-03T04:09:58.341Z,29.58
2023-03-03T04:12:36.109Z,31.98
2023-03-03T04:15:12.883Z,30.15
2023-03-03T04:17:46.021Z,30.23
2023-03-03T04:20:19.264Z,31.42
2023-03-03T04:22:52.696Z,29.50
2023-03-03T04:25:25.955Z,33.85
2023-03-03T04:28:00.123Z,31.38
2023-03-03T04:30:34.356Z,32.45
2023-03-03T04:33:07.506Z,29.73
2023-03-03T04:35:41.200Z,26.13
2023-03-03T04:38:14.540Z,27.60
2023-03-03T04:40:48.088Z,32.83
2023-03-03T04:43:23.183Z,30.38
2023-03-03T04:45:57.856Z,27.20
2023-03-03T04:48:31.019Z,29.17
2023-03-03T04:51:04.024Z,31.52
2023-03-03T04:53:39.812Z,33.30
2023-03-03T04:56:14.777Z,33.42
2023-03-03T04:58:47.907Z,31.55
2023-03-03T05:01:22.834Z,29.63
2023-03-03T05:03:56.450Z,26.27
2023-03-03T05:06:29.969Z,32.90
2023-03-03T05:09:03.871Z,30.55
2023-03-03T05:11:37.076Z,28.20
2023-03-03T05:14:09.946Z,29.70
2023-03-03T05:16:44.853Z,26.10
2023-03-03T05:19:17.840Z,23.63
2023-03-03T05:21:50.933Z,28.48
2023-03-03T05:24:24.132Z,27.70
2023-03-03T05:26:57.122Z,31.80
2023-03-03T05:29:31.922Z,27.13
2023-03-03T05:32:06.439Z,31.60
2023-03-03T05:34:39.610Z,37.05
2023-03-03T05:37:12.474Z,32.47
2023-03-03T05:39:45.514Z,33.42
2023-03-03T05:42:18.488Z,27.13
2023-03-03T05:44:51.492Z,29.73
2023-03-03T05:47:26.038Z,28.15
2023-03-03T05:49:58.925Z,28.40
2023-03-03T05:52:32.094Z,30.70
2023-03-03T05:55:05.355Z,32.22
2023-03-03T05:57:38.246Z,26.45
2023-03-03T06:00:13.058Z,29.08
2023-03-03T06:02:47.640Z,35.03
2023-03-03T06:05:20.706Z,29.80
2023-03-03T06:07:54.026Z,29.73
2023-03-03T06:10:26.882Z,32.88
2023-03-03T06:13:02.751Z,36.60
2023-03-03T06:15:35.596Z,27.42
2023-03-03T06:18:09.856Z,32.90
2023-03-03T06:20:42.712Z,33.88
2023-03-03T06:23:15.862Z,30.80
2023-03-03T06:25:48.864Z,32.03
2023-03-03T06:28:21.779Z,31.02
2023-03-03T06:30:55.629Z,30.05
2023-03-03T06:33:29.807Z,35.10
2023-03-03T06:36:05.407Z,31.52
2023-03-03T06:38:38.769Z,29.52
2023-03-03T06:41:12.730Z,30.40
2023-03-03T06:43:46.500Z,30.10
2023-03-03T06:46:19.628Z,32.55
2023-03-03T06:48:54.248Z,33.90
2023-03-03T06:51:35.853Z,33.22
2023-03-03T06:54:14.153Z,35.08
2023-03-03T06:56:48.374Z,33.20
2023-03-03T06:59:22.876Z,33.97
2023-03-03T07:01:56.206Z,39.92
2023-03-03T07:04:33.858Z,33.63
2023-03-03T07:07:16.292Z,31.80
2023-03-03T07:09:53.849Z,32.22
2023-03-03T07:12:30.385Z,36.28
2023-03-03T07:15:16.391Z,29.13
2023-03-03T07:17:51.386Z,36.75
2023-03-03T07:20:31.037Z,29.80
2023-03-03T07:23:19.809Z,33.28
2023-03-03T07:25:53.914Z,38.13
2023-03-03T07:28:28.572Z,40.20
2023-03-03T07:31:01.373Z,40.50
2023-03-03T07:33:37.610Z,43.17
2023-03-03T07:36:27.359Z,41.83
2023-03-03T07:39:02.279Z,40.58
2023-03-03T07:41:36.369Z,38.97
2023-03-03T07:44:19.075Z,41.15
2023-03-03T07:46:52.765Z,38.67
2023-03-03T07:49:35.127Z,40.30
2023-03-03T07:52:24.768Z,38.20
2023-03-03T07:55:00.048Z,44.95
2023-03-03T07:57:38.054Z,41.88
2023-03-03T08:00:44.441Z,38.40
2023-03-03T08:03:20.473Z,37.55
2023-03-03T08:05:53.464Z,34.90
2023-03-03T08:08:31.800Z,45.40
2023-03-03T08:11:05.939Z,36.85
2023-03-03T08:13:39.961Z,39.95
2023-03-03T08:16:36.353Z,40.80
2023-03-03T08:19:12.581Z,46.45
2023-03-03T08:21:45.410Z,45.35
2023-03-03T08:24:19.890Z,43.60
2023-03-03T08:26:53.269Z,46.63
2023-03-03T08:29:26.380Z,50.40
2023-03-03T08:31:59.441Z,44.90
2023-03-03T08:34:32.522Z,43.50
2023-03-03T08:37:05.847Z,48.72
2023-03-03T08:39:40.091Z,45.80
2023-03-03T08:42:15.241Z,53.75
2023-03-03T08:44:48.971Z,47.67
2023-03-03T08:47:21.849Z,49.20
2023-03-03T08:49:55.468Z,45.58
2023-03-03T08:52:28.283Z,51.22
2023-03-03T08:55:02.656Z,50.35
2023-03-03T08:57:35.494Z,47.85
2023-03-03T09:00:12.211Z,47.95
2023-03-03T09:02:45.070Z,46.67
2023-03-03T09:05:18.776Z,48.20
2023-03-03T09:07:52.758Z,53.42
2023-03-03T09:10:30.835Z,47.50
2023-03-03T09:13:09.504Z,48.63
2023-03-03T09:15:42.893Z,45.88
2023-03-03T09:18:18.858Z,46.58
2023-03-03T09:20:53.201Z,47.60
2023-03-03T09:23:35.737Z,40.30
2023-03-03T09:26:41.316Z,44.65
2023-03-03T09:29:25.859Z,45.30
2023-03-03T09:32:02.622Z,50.50
2023-03-03T09:34:41.199Z,42.90
2023-03-03T09:37:23.078Z,44.13
2023-03-03T09:39:57.739Z,47.42
2023-03-03T09:42:54.896Z,52.78
2023-03-03T09:45:52.996Z,42.85
2023-03-03T09:48:40.504Z,43.30
2023-03-03T09:51:25.480Z,43.45
2023-03-03T09:54:18.015Z,51.60
2023-03-03T09:56:55.716Z,45.17
2023-03-03T09:59:42.655Z,42.55
2023-03-03T10:02:34.593Z,40.88
2023-03-03T10:05:20.464Z,43.35
2023-03-03T10:08:04.498Z,43.25
2023-03-03T10:10:54.555Z,36.85
2023-03-03T10:13:40.645Z,43.22
2023-03-03T10:16:38.879Z,46.25
2023-03-03T10:19:50.034Z,40.63
2023-03-03T10:22:31.668Z,41.05
2023-03-03T10:25:21.930Z,38.28
2023-03-03T10:28:21.016Z,43.58
2023-03-03T10:31:12.177Z,47.72
2023-03-03T10:33:57.980Z,38.17
2023-03-03T10:36:46.621Z,40.17
2023-03-03T10:39:37.257Z,42.85
2023-03-03T10:42:31.576Z,41.10
2023-03-03T10:45:20.835Z,39.00
2023-03-03T10:48:11.596Z,40.72
2023-03-03T10:50:59.129Z,41.40
2023-03-03T10:53:35.768Z,37.40
2023-03-03T10:56:23.601Z,38.38
2023-03-03T10:59:07.999Z,40.75
2023-03-03T11:01:50.601Z,40.13
2023-03-03T11:04:47.546Z,38.38
2023-03-03T11:07:27.688Z,38.15
2023-03-03T11:10:26.160Z,37.10
2023-03-03T11:13:11.440Z,40.42
2023-03-03T11:16:07.423Z,37.75
2023-03-03T11:18:53.997Z,35.03
2023-03-03T11:21:34.351Z,33.35
2023-03-03T11:24:38.502Z,36.00
2023-03-03T11:27:22.647Z,32.53
2023-03-03T11:30:18.838Z,36.67
2023-03-03T11:33:00.464Z,34.83
2023-03-03T11:35:39.417Z,35.85
2023-03-03T11:38:25.907Z,42.10
2023-03-03T11:41:04.916Z,37.97
2023-03-03T11:43:43.447Z,31.23
2023-03-03T11:46:20.747Z,32.15
2023-03-03T11:48:59.792Z,35.33
2023-03-03T11:51:43.622Z,36.67
2023-03-03T11:54:23.013Z,32.28
2023-03-03T11:57:11.943Z,29.35
2023-03-03T12:00:04.484Z,36.03
2023-03-03T12:03:03.801Z,33.05
2023-03-03T12:05:48.715Z,32.65
2023-03-03T12:08:36.312Z,36.65
2023-03-03T12:11:18.072Z,35.58
2023-03-03T12:13:59.250Z,33.67
2023-03-03T12:16:47.593Z,30.80
2023-03-03T12:19:30.209Z,32.00
2023-03-03T12:22:30.786Z,31.42
2023-03-03T12:27:49.999Z,29.55
2023-03-03T12:30:41.184Z,33.78
2023-03-03T12:33:23.790Z,28.38
2023-03-03T12:36:10.828Z,33.97
2023-03-03T12:38:57.280Z,35.40
2023-03-03T12:41:37.159Z,32.55
2023-03-03T12:44:19.332Z,32.33
2023-03-03T12:47:01.954Z,29.50
2023-03-03T12:49:52.007Z,31.20
2023-03-03T12:52:33.183Z,30.63
2023-03-03T12:55:18.502Z,27.63
2023-03-03T12:57:59.946Z,32.38
2023-03-03T13:00:44.989Z,29.45
2023-03-03T13:03:33.527Z,30.65
2023-03-03T13:08:57.696Z,27.08
2023-03-03T13:11:47.053Z,27.80
2023-03-03T13:14:29.426Z,25.92
2023-03-03T13:17:11.700Z,27.75
2023-03-03T13:19:52.478Z,24.45
2023-03-03T13:22:42.908Z,29.05
2023-03-03T13:25:32.733Z,25.67
2023-03-03T13:28:12.825Z,24.25
2023-03-03T13:30:50.070Z,26.75
2023-03-03T13:33:28.120Z,27.95
2023-03-03T13:36:04.975Z,21.95
2023-03-03T13:38:42.601Z,26.08
2023-03-03T13:41:22.026Z,21.13
2023-03-03T13:44:02.138Z,26.15
2023-03-03T13:46:41.932Z,20.70
2023-03-03T13:49:33.496Z,19.83
2023-03-03T13:52:11.703Z,21.08
2023-03-03T13:54:58.603Z,20.65
2023-03-03T13:57:51.851Z,21.48
2023-03-03T14:00:34.095Z,21.58
2023-03-03T14:03:26.836Z,20.80
2023-03-03T14:06:04.383Z,22.48
2023-03-03T14:08:49.557Z,23.58
2023-03-03T14:11:28.853Z,21.83
2023-03-03T14:14:13.707Z,20.33
2023-03-03T14:16:53.092Z,21.92
2023-03-03T14:19:30.934Z,18.42
2023-03-03T14:22:23.774Z,18.20
2023-03-03T14:25:03.088Z,17.90
2023-03-03T14:27:39.288Z,19.30
2023-03-03T14:30:31.751Z,20.33
2023-03-03T14:33:20.785Z,18.98
2023-03-03T14:36:04.072Z,19.77
2023-03-03T14:38:44.435Z,17.90
2023-03-03T14:41:21.232Z,19.42
2023-03-03T14:43:59.762Z,17.35
2023-03-03T14:46:38.327Z,17.77
2023-03-03T14:49:16.753Z,17.00
2023-03-03T14:51:51.174Z,16.58
2023-03-03T14:54:29.327Z,16.75
2023-03-03T14:57:13.667Z,14.98
2023-03-03T14:59:58.700Z,15.95
2023-03-03T15:02:36.670Z,16.98
2023-03-03T15:05:22.809Z,15.75
2023-03-03T15:07:57.984Z,17.42
2023-03-03T15:10:34.111Z,15.07
2023-03-03T15:13:34.186Z,15.55
2023-03-03T15:16:13.027Z,15.00
2023-03-03T15:19:14.702Z,17.65
2023-03-03T15:21:58.509Z,14.98
2023-03-03T15:24:40.300Z,12.57
2023-03-03T15:27:22.267Z,14.10
2023-03-03T15:30:06.297Z,14.18
2023-03-03T15:32:48.507Z,14.18
2023-03-03T15:35:37.898Z,12.48
2023-03-03T15:38:29.557Z,14.27
2023-03-03T15:41:16.365Z,16.00
2023-03-03T15:43:59.348Z,18.63
2023-03-03T15:46:46.205Z,15.45
2023-03-03T15:49:38.376Z,19.88
2023-03-03T15:52:25.147Z,20.17
2023-03-03T15:55:09.793Z,21.60
2023-03-03T15:57:57.454Z,16.50
2023-03-03T16:00:40.280Z,21.27
2023-03-03T16:03:20.781Z,19.40
2023-03-03T16:08:37.817Z,19.55
2023-03-03T16:11:17.049Z,19.48
2023-03-03T16:14:01.827Z,21.42
2023-03-03T16:16:52.070Z,19.67
2023-03-03T16:19:38.742Z,19.35
2023-03-03T16:22:25.781Z,22.55
2023-03-03T16:25:15.995Z,20.70
2023-03-03T16:27:55.916Z,20.92
2023-03-03T16:30:33.967Z,20.08
2023-03-03T16:33:22.310Z,20.73
2023-03-03T16:36:04.612Z,19.77
2023-03-03T16:38:41.025Z,28.58
2023-03-03T16:41:20.682Z,18.23
2023-03-03T16:44:04.861Z,20.73
2023-03-03T16:46:42.479Z,21.55
2023-03-03T16:49:23.109Z,21.73
2023-03-03T16:52:04.402Z,22.20
2023-03-03T16:54:45.177Z,24.45
2023-03-03T16:57:26.854Z,27.95
2023-03-03T17:00:06.655Z,29.98
2023-03-03T17:03:06.017Z,39.63
2023-03-03T17:05:49.948Z,31.20
2023-03-03T17:08:42.533Z,36.50
2023-03-03T17:11:26.219Z,36.47
2023-03-03T17:14:19.858Z,32.00
2023-03-03T17:17:00.194Z,33.92
2023-03-03T17:19:48.602Z,32.95
2023-03-03T17:22:30.529Z,33.53
2023-03-03T17:25:14.660Z,30.85
2023-03-03T17:28:10.552Z,27.80
2023-03-03T17:30:50.365Z,28.17
2023-03-03T17:33:37.678Z,30.95
2023-03-03T17:36:26.351Z,28.20
2023-03-03T17:39:13.588Z,21.10
2023-03-03T17:41:54.976Z,24.10
2023-03-03T17:44:39.026Z,27.17
2023-03-03T17:47:20.624Z,28.17
2023-03-03T17:50:10.633Z,31.50
2023-03-03T17:53:02.892Z,33.70
2023-03-03T17:56:03.505Z,34.63
2023-03-03T18:01:31.680Z,33.08
2023-03-03T18:04:55.271Z,33.80
2023-03-03T18:07:39.762Z,34.75
2023-03-03T18:10:42.104Z,31.25
2023-03-03T18:13:35.200Z,32.58
2023-03-03T18:16:20.368Z,34.78
2023-03-03T18:19:09.501Z,39.45
2023-03-03T18:21:53.202Z,28.77
2023-03-03T18:24:38.491Z,28.92
2023-03-03T18:27:30.040Z,28.85
2023-03-03T18:30:25.036Z,29.55
2023-03-03T18:33:08.499Z,26.58
2023-03-03T18:35:44.035Z,32.97
2023-03-03T18:38:32.325Z,37.25
2023-03-03T18:41:06.507Z,32.47
2023-03-03T18:43:56.092Z,35.83
2023-03-03T18:46:53.889Z,30.37
2023-03-03T18:49:52.566Z,39.67
2023-03-03T18:52:28.839Z,31.73
2023-03-03T18:55:27.015Z,24.92
2023-03-03T18:58:29.047Z,32.05
2023-03-03T19:01:37.856Z,32.70
2023-03-03T19:04:21.525Z,36.25
2023-03-03T19:07:16.961Z,36.67
2023-03-03T19:09:57.364Z,38.70
2023-03-03T19:12:52.751Z,39.67
2023-03-03T19:15:47.434Z,36.15
2023-03-03T19:18:23.890Z,29.55
2023-03-03T19:21:00.666Z,31.40
2023-03-03T19:23:51.218Z,36.08
2023-03-03T19:29:28.044Z,32.72
2023-03-03T19:32:22.500Z,37.13
2023-03-03T19:35:05.528Z,42.13
2023-03-03T19:37:50.242Z,37.17
2023-03-03T19:40:30.881Z,32.95
2023-03-03T19:43:15.101Z,39.83
2023-03-03T19:46:03.698Z,34.92
2023-03-03T19:48:41.504Z,38.05
2023-03-03T19:51:24.907Z,35.20
2023-03-03T19:54:22.530Z,39.85
2023-03-03T19:56:58.340Z,34.70
2023-03-03T19:59:37.810Z,30.23
2023-03-03T20:02:31.539Z,36.53
2023-03-03T20:05:21.278Z,35.83
2023-03-03T20:08:02.420Z,31.38
2023-03-03T20:10:44.272Z,34.88
2023-03-03T20:13:33.914Z,33.28
2023-03-03T20:16:18.316Z,35.88
2023-03-03T20:19:26.046Z,51.65
2023-03-03T20:22:08.223Z,44.80
2023-03-03T20:25:15.507Z,47.33
2023-03-03T20:28:00.123Z,35.75
2023-03-03T20:30:48.468Z,29.48
2023-03-03T20:33:38.687Z,25.25
2023-03-03T20:36:21.043Z,23.33
2023-03-03T20:39:04.264Z,22.48
2023-03-03T20:41:51.212Z,18.25
2023-03-03T20:44:38.389Z,21.63
2023-03-03T20:47:20.341Z,19.23
2023-03-03T20:50:04.253Z,19.08
2023-03-03T20:52:43.488Z,17.65
2023-03-03T20:55:24.927Z,17.10
2023-03-03T20:58:02.886Z,24.10
2023-03-03T21:00:44.144Z,26.55
2023-03-03T21:03:25.289Z,34.53
2023-03-03T21:06:00.177Z,37.53
2023-03-03T21:08:46.215Z,26.95
2023-03-03T21:11:21.198Z,20.65
2023-03-03T21:13:55.208Z,19.20
2023-03-03T21:16:33.117Z,19.70
2023-03-03T21:19:09.032Z,15.60
2023-03-03T21:21:45.232Z,14.38
2023-03-03T21:24:20.103Z,16.35
2023-03-03T21:26:55.646Z,17.98
2023-03-03T21:29:31.168Z,15.38
2023-03-03T21:32:06.926Z,19.38
2023-03-03T21:34:41.742Z,16.00
2023-03-03T21:37:35.653Z,15.70
2023-03-03T21:40:21.211Z,19.23
2023-03-03T21:42:55.705Z,14.63
2023-03-03T21:45:30.195Z,14.45
2023-03-03T21:48:05.063Z,13.85
2023-03-03T21:50:41.271Z,9.82
2023-03-03T21:53:14.245Z,12.02
2023-03-03T21:55:49.763Z,11.48
2023-03-03T21:58:22.994Z,12.80
2023-03-03T22:00:55.888Z,12.05
2023-03-03T22:03:28.995Z,13.23
2023-03-03T22:06:02.188Z,10.35
2023-03-03T22:08:35.278Z,14.50
2023-03-03T22:11:09.879Z,14.55
2023-03-03T22:13:42.961Z,12.95
2023-03-03T22:16:16.866Z,13.80
2023-03-03T22:18:49.905Z,12.73
2023-03-03T22:21:22.991Z,14.30
2023-03-03T22:23:55.801Z,13.23
2023-03-03T22:26:30.157Z,17.92
2023-03-03T22:29:02.998Z,15.07
2023-03-03T22:31:36.232Z,13.30
2023-03-03T22:34:09.298Z,14.57
2023-03-03T22:36:42.277Z,14.75
2023-03-03T22:39:15.267Z,16.38
2023-03-03T22:41:49.575Z,12.93
2023-03-03T22:44:22.492Z,12.45
2023-03-03T22:46:55.302Z,14.18
2023-03-03T22:49:28.094Z,23.98
2023-03-03T22:52:02.815Z,30.85
2023-03-03T22:54:36.012Z,18.83
2023-03-03T22:57:10.436Z,19.58
2023-03-03T22:59:43.275Z,13.40
2023-03-03T23:02:16.130Z,17.98
2023-03-03T23:04:49.189Z,12.40
2023-03-03T23:07:22.187Z,15.48
2023-03-03T23:09:55.567Z,13.98
2023-03-03T23:12:29.834Z,19.58
2023-03-03T23:15:02.898Z,16.58
2023-03-03T23:17:36.012Z,15.13
2023-03-03T23:20:11.215Z,18.23
2023-03-03T23:22:44.185Z,15.45
2023-03-03T23:25:17.992Z,13.43
2023-03-03T23:27:53.168Z,12.57
2023-03-03T23:30:26.332Z,22.98
2023-03-03T23:32:59.283Z,27.02
2023-03-03T23:35:32.274Z,27.08
2023-03-03T23:38:06.007Z,15.95
2023-03-03T23:40:39.312Z,17.05
2023-03-03T23:43:13.630Z,16.23
2023-03-03T23:45:46.427Z,18.10
2023-03-03T23:48:20.709Z,18.95
2023-03-03T23:50:53.878Z,22.30
2023-03-03T23:53:26.824Z,30.30
2023-03-03T23:55:59.717Z,25.63
2023-03-03T23:58:34.062Z,26.45
